Time;durP1;ratioP1;P1;durP2;ratioP2;P2;SDS_P1;SDS_P2;PMS_P1;PMS_P2;Temp;Humidity;BMP_temperature;BMP_pressure;BME280_temperature;BME280_humidity;BME280_pressure;Samples;Min_cycle;Max_cycle;Signal;HPM_P1;HPM_P2
2022/10/31 00:00:31;;;;;;;13.38;10.13;;;;;;;15.00;83.63;100593.97;10431261;28;20053;-70
2022/10/31 00:05:32;;;;;;;12.00;9.60;;;;;;;14.84;84.75;100594.56;10429925;28;20045;-72
2022/10/31 00:10:37;;;;;;;14.25;9.43;;;;;;;14.96;84.40;100600.59;10431748;28;20049;-71
2022/10/31 00:15:40;;;;;;;13.25;9.52;;;;;;;14.95;84.85;100598.91;10421115;28;20286;-71
2022/10/31 00:20:41;;;;;;;10.98;8.93;;;;;;;14.83;84.87;100601.75;10429086;28;20545;-72
2022/10/31 00:25:42;;;;;;;10.57;9.43;;;;;;;14.81;85.34;100603.72;10435287;28;20052;-69
2022/10/31 00:30:44;;;;;;;13.73;9.93;;;;;;;14.72;86.14;100596.53;10442423;28;20388;-70
2022/10/31 00:35:51;;;;;;;11.93;10.70;;;;;;;14.82;85.32;100610.78;10436151;28;20041;-72
2022/10/31 00:40:52;;;;;;;12.27;9.68;;;;;;;15.00;84.34;100615.44;10460023;28;20251;-73
2022/10/31 00:45:54;;;;;;;13.43;9.80;;;;;;;14.90;84.19;100612.75;10438893;28;20068;-74
2022/10/31 00:50:55;;;;;;;10.68;9.43;;;;;;;14.78;85.22;100609.38;10436731;28;20595;-73
2022/10/31 00:55:57;;;;;;;12.15;9.55;;;;;;;14.84;85.20;100616.84;10392649;28;20056;-71
2022/10/31 01:00:58;;;;;;;11.45;8.50;;;;;;;14.85;84.80;100623.06;10396456;28;20056;-72
2022/10/31 01:06:01;;;;;;;12.60;8.60;;;;;;;14.66;86.30;100623.91;10389804;28;20060;-70
2022/10/31 01:11:07;;;;;;;9.95;8.57;;;;;;;14.96;86.10;100622.06;10402650;28;20045;-72
2022/10/31 01:16:12;;;;;;;14.25;10.15;;;;;;;14.94;85.07;100624.03;10393676;28;20051;-69
2022/10/31 01:21:16;;;;;;;14.20;9.13;;;;;;;15.06;84.62;100622.03;10392018;28;20088;-69
2022/10/31 01:26:22;;;;;;;;;;;;;;;14.93;85.92;100625.84;10390117;28;20064;-70
2022/10/31 01:31:26;;;;;;;12.02;10.13;;;;;;;14.77;85.56;100622.91;10387170;28;19932;-69
2022/10/31 01:36:30;;;;;;;;;;;;;;;14.57;86.72;100617.53;10391166;28;20260;-70
2022/10/31 01:41:34;;;;;;;12.80;8.75;;;;;;;14.57;86.52;100619.38;10388139;28;20030;-70
2022/10/31 01:46:43;;;;;;;10.40;8.88;;;;;;;14.47;87.09;100613.97;10392280;28;20181;-72
2022/10/31 01:51:51;;;;;;;11.68;9.10;;;;;;;14.44;86.81;100609.78;10395067;28;20036;-71
2022/10/31 01:56:55;;;;;;;11.55;8.98;;;;;;;14.23;87.11;100598.31;10403436;28;20041;-68
2022/10/31 02:01:57;;;;;;;;;;;;;;;14.15;87.29;100601.69;10394159;28;20056;-69
2022/10/31 02:07:03;;;;;;;9.75;8.50;;;;;;;14.11;87.21;100601.13;10391606;28;19986;-72
2022/10/31 02:12:06;;;;;;;10.23;8.40;;;;;;;14.15;86.59;100593.66;10396133;28;20443;-70
2022/10/31 02:17:07;;;;;;;11.35;8.25;;;;;;;14.19;86.06;100596.94;10395777;28;20060;-71
2022/10/31 02:22:27;;;;;;;10.90;8.30;;;;;;;14.12;86.59;100602.81;10397933;28;20095;-69
2022/10/31 02:27:52;;;;;;;10.52;7.68;;;;;;;14.22;86.30;100602.00;10394500;28;20045;-70
2022/10/31 02:33:23;;;;;;;10.30;8.25;;;;;;;14.15;85.06;100602.53;10395884;28;20060;-70
2022/10/31 02:38:38;;;;;;;12.07;8.27;;;;;;;14.15;84.53;100602.53;10407351;28;20076;-70
2022/10/31 02:43:55;;;;;;;11.77;8.27;;;;;;;14.08;85.26;100605.91;10425843;28;20057;-71
2022/10/31 02:49:03;;;;;;;11.30;7.80;;;;;;;14.05;85.64;100601.69;10403409;28;20057;-71
2022/10/31 02:54:05;;;;;;;15.50;8.32;;;;;;;14.05;85.54;100606.19;10394124;28;21018;-69
2022/10/31 02:59:06;;;;;;;13.77;7.60;;;;;;;14.10;84.88;100610.13;10396039;28;20064;-71
2022/10/31 03:04:40;;;;;;;8.50;6.70;;;;;;;14.26;85.02;100608.75;10395021;28;20049;-70
2022/10/31 03:09:44;;;;;;;7.07;6.38;;;;;;;14.16;83.06;100598.03;10394507;28;20055;-69
2022/10/31 03:14:54;;;;;;;;;;;;;;;14.04;83.97;100599.16;10432292;28;20049;-71
2022/10/31 03:20:00;;;;;;;13.90;9.90;;;;;;;13.96;84.23;100594.47;10393612;28;20366;-71
2022/10/31 03:25:04;;;;;;;13.23;11.98;;;;;;;13.92;84.85;100593.06;10391108;28;20703;-69
2022/10/31 03:30:07;;;;;;;13.18;11.85;;;;;;;13.87;85.64;100595.28;10389308;28;20067;-70
2022/10/31 03:35:11;;;;;;;15.70;12.35;;;;;;;13.87;85.70;100600.63;10390906;28;20052;-71
2022/10/31 03:40:16;;;;;;;9.75;8.55;;;;;;;14.03;86.77;100590.25;10392246;28;20519;-72
2022/10/31 03:45:24;;;;;;;11.30;7.90;;;;;;;14.05;83.88;100590.13;10371749;28;20053;-69
2022/10/31 03:50:35;;;;;;;9.05;7.07;;;;;;;13.76;83.41;100591.72;10390033;28;20057;-68
2022/10/31 03:55:46;;;;;;;10.38;7.53;;;;;;;13.78;85.27;100595.13;10430624;28;20333;-69
2022/10/31 04:00:51;;;;;;;9.10;6.93;;;;;;;14.11;83.28;100594.91;10437012;28;20456;-69
2022/10/31 04:05:56;;;;;;;7.95;7.13;;;;;;;13.87;82.90;100587.25;10443897;28;20075;-70
2022/10/31 04:11:00;;;;;;;11.65;8.82;;;;;;;13.71;83.53;100588.63;10442426;28;20057;-70
2022/10/31 04:16:01;;;;;;;15.83;14.10;;;;;;;13.54;84.06;100575.88;10416485;28;20443;-71
2022/10/31 04:21:06;;;;;;;20.92;18.88;;;;;;;13.57;84.56;100575.63;10444509;28;20033;-73
2022/10/31 04:26:11;;;;;;;12.80;11.25;;;;;;;13.51;83.73;100571.69;10455215;28;20071;-72
2022/10/31 04:31:13;;;;;;;9.75;7.75;;;;;;;13.48;83.82;100581.78;10443604;28;20053;-71
2022/10/31 04:36:15;;;;;;;12.85;10.93;;;;;;;13.46;84.67;100589.09;10445962;28;20272;-73
2022/10/31 04:41:16;;;;;;;12.05;11.02;;;;;;;13.44;84.43;100592.75;10457967;28;20059;-75
2022/10/31 04:46:17;;;;;;;11.52;10.43;;;;;;;13.54;84.86;100603.50;10448123;28;20144;-71
2022/10/31 04:51:19;;;;;;;12.88;9.25;;;;;;;13.66;83.81;100606.06;10398530;28;20045;-70
2022/10/31 04:56:20;;;;;;;9.93;8.25;;;;;;;13.69;84.14;100606.66;10403470;28;20522;-70
2022/10/31 05:01:21;;;;;;;10.35;8.60;;;;;;;13.79;83.88;100606.69;10402650;28;20131;-72
2022/10/31 05:06:23;;;;;;;8.70;7.80;;;;;;;13.99;83.29;100606.72;10454722;28;20049;-70
2022/10/31 05:11:24;;;;;;;9.60;6.40;;;;;;;13.90;82.81;100603.03;10400129;28;20060;-70
2022/10/31 05:16:25;;;;;;;11.63;6.93;;;;;;;13.77;83.94;100589.91;10378557;28;20053;-71
2022/10/31 05:21:27;;;;;;;12.52;6.68;;;;;;;13.82;84.18;100578.81;10382723;28;20053;-74
2022/10/31 05:26:28;;;;;;;10.18;7.00;;;;;;;13.83;83.39;100585.88;10382375;28;20496;-70
2022/10/31 05:31:29;;;;;;;10.82;6.45;;;;;;;13.67;84.18;100565.78;10382218;28;20469;-72
2022/10/31 05:36:30;;;;;;;8.88;6.28;;;;;;;13.53;85.13;100574.22;10384197;28;20041;-73
2022/10/31 05:41:32;;;;;;;8.85;5.80;;;;;;;13.69;85.06;100582.59;10383135;28;20063;-73
2022/10/31 05:46:33;;;;;;;10.02;6.35;;;;;;;13.97;84.09;100588.13;10386104;28;20060;-70
2022/10/31 05:51:39;;;;;;;8.45;6.53;;;;;;;14.07;82.52;100585.50;10383496;28;20053;-69
2022/10/31 05:56:41;;;;;;;10.50;7.55;;;;;;;13.99;82.80;100583.50;10389037;28;20044;-71
2022/10/31 06:01:42;;;;;;;10.38;9.15;;;;;;;13.89;82.69;100577.28;10407208;28;20049;-72
2022/10/31 06:06:43;;;;;;;13.80;11.52;;;;;;;13.88;83.20;100575.59;10381205;28;20057;-70
2022/10/31 06:11:45;;;;;;;13.15;11.85;;;;;;;13.96;82.43;100579.28;10380951;28;20061;-69
2022/10/31 06:16:46;;;;;;;11.80;9.45;;;;;;;13.97;82.78;100578.25;10376774;28;20057;-71
2022/10/31 06:21:47;;;;;;;9.35;8.40;;;;;;;13.88;82.74;100563.03;10380524;28;20060;-73
2022/10/31 06:26:49;;;;;;;8.05;6.50;;;;;;;13.94;83.28;100575.03;10378963;28;20049;-73
2022/10/31 06:31:54;;;;;;;8.88;6.35;;;;;;;14.11;81.76;100577.03;10383600;28;20057;-74
2022/10/31 06:36:55;;;;;;;8.25;6.03;;;;;;;14.12;81.40;100584.06;10411630;28;20071;-74
2022/10/31 06:41:57;;;;;;;8.25;6.15;;;;;;;14.05;81.85;100577.59;10385410;28;20057;-70
2022/10/31 06:46:58;;;;;;;8.40;6.07;;;;;;;14.13;81.39;100584.94;10391565;28;20055;-72
2022/10/31 06:52:00;;;;;;;8.15;5.95;;;;;;;14.12;82.16;100586.75;10393372;28;20053;-71
2022/10/31 06:57:01;;;;;;;7.85;6.47;;;;;;;14.15;82.96;100591.00;10396164;28;20150;-72
2022/10/31 07:02:02;;;;;;;11.70;7.60;;;;;;;14.35;82.10;100597.19;10392444;28;21641;-73
2022/10/31 07:07:04;;;;;;;9.80;7.40;;;;;;;14.32;82.27;100597.47;10384862;28;20060;-72
2022/10/31 07:12:05;;;;;;;15.95;7.18;;;;;;;14.47;82.08;100600.59;10380211;28;20059;-73
2022/10/31 07:17:06;;;;;;;11.38;7.10;;;;;;;14.63;80.09;100610.78;10370204;28;20057;-72
2022/10/31 07:22:07;;;;;;;7.97;6.68;;;;;;;14.59;80.30;100612.03;10362217;28;20045;-71
2022/10/31 07:27:09;;;;;;;12.45;8.30;;;;;;;14.41;80.33;100602.03;10373262;28;20053;-73
2022/10/31 07:32:10;;;;;;;10.07;7.97;;;;;;;14.33;81.34;100599.19;10375416;28;20140;-72
2022/10/31 07:37:11;;;;;;;11.73;10.52;;;;;;;14.34;81.61;100600.88;10407796;28;20134;-69
2022/10/31 07:42:13;;;;;;;10.32;7.90;;;;;;;14.49;81.34;100599.47;10430026;28;21023;-71
2022/10/31 07:47:14;;;;;;;12.43;8.23;;;;;;;14.76;81.25;100616.72;10437751;28;20057;-70
2022/10/31 07:52:15;;;;;;;12.75;8.52;;;;;;;14.79;80.68;100605.72;10422524;28;20048;-70
2022/10/31 07:57:16;;;;;;;9.82;8.82;;;;;;;14.97;80.27;100613.03;10404863;28;20049;-72
2022/10/31 08:02:25;;;;;;;17.63;10.27;;;;;;;15.08;78.95;100610.16;10418487;28;20205;-70
2022/10/31 08:07:28;;;;;;;16.50;8.60;;;;;;;15.23;78.56;100623.13;10424441;28;20053;-73
2022/10/31 08:12:30;;;;;;;13.27;8.32;;;;;;;15.39;78.06;100612.66;10430535;28;20484;-73
2022/10/31 08:17:35;;;;;;;11.93;8.30;;;;;;;15.46;78.19;100607.53;10420841;28;20048;-70
2022/10/31 08:22:36;;;;;;;13.50;9.80;;;;;;;15.45;78.05;100605.88;10419052;28;20045;-71
2022/10/31 08:27:49;;;;;;;14.63;9.13;;;;;;;15.36;78.79;100596.84;10390038;28;20750;-69
2022/10/31 08:33:06;;;;;;;12.77;9.20;;;;;;;15.30;79.23;100594.75;10379512;28;20091;-71
2022/10/31 08:38:10;;;;;;;11.18;9.38;;;;;;;15.32;79.23;100596.28;10379733;28;20045;-72
2022/10/31 08:43:15;;;;;;;10.75;8.63;;;;;;;15.32;79.23;100592.75;10381798;28;20061;-71
2022/10/31 08:48:17;;;;;;;9.35;8.05;;;;;;;15.38;79.49;100586.81;10379724;28;20270;-73
2022/10/31 08:53:18;;;;;;;10.82;9.07;;;;;;;15.50;79.58;100584.78;10381834;28;20366;-71
2022/10/31 08:58:21;;;;;;;9.98;8.90;;;;;;;15.60;78.87;100582.06;10392900;28;20419;-73
2022/10/31 09:03:24;;;;;;;10.57;9.50;;;;;;;15.76;78.57;100582.25;10389509;28;20041;-70
2022/10/31 09:08:26;;;;;;;9.80;8.80;;;;;;;15.96;77.98;100588.41;10379966;28;20048;-71
2022/10/31 09:13:27;;;;;;;10.02;9.00;;;;;;;16.06;77.28;100583.84;10385766;28;20056;-71
2022/10/31 09:18:29;;;;;;;11.43;9.75;;;;;;;16.14;77.03;100579.53;10378990;28;20534;-70
2022/10/31 09:23:30;;;;;;;9.77;8.88;;;;;;;16.36;76.36;100565.66;10380054;28;20225;-70
2022/10/31 09:28:32;;;;;;;12.40;9.65;;;;;;;16.91;73.66;100555.72;10386273;28;20053;-71
2022/10/31 09:33:33;;;;;;;15.75;9.98;;;;;;;17.57;71.23;100562.31;10395895;28;20137;-70
2022/10/31 09:38:34;;;;;;;15.13;10.00;;;;;;;18.22;68.54;100560.81;10380954;28;20129;-70
2022/10/31 09:44:02;;;;;;;10.45;9.45;;;;;;;18.60;66.38;100557.66;10378732;28;20049;-70
2022/10/31 09:49:24;;;;;;;12.32;9.73;;;;;;;18.92;65.35;100561.41;10417348;28;20056;-70
2022/10/31 09:55:24;;;;;;;14.07;8.35;;;;;;;19.15;63.62;100556.13;10397105;28;20132;-71
2022/10/31 10:00:26;;;;;;;9.82;8.35;;;;;;;19.47;62.81;100554.31;10285876;28;20688;-70
2022/10/31 10:05:40;;;;;;;9.88;7.97;;;;;;;19.96;61.25;100546.03;10372293;28;20053;-70
2022/10/31 10:11:00;;;;;;;10.80;8.40;;;;;;;20.35;60.35;100545.09;10399685;28;20049;-71
2022/10/31 10:16:13;;;;;;;13.13;8.38;;;;;;;20.69;58.84;100530.31;10402985;28;20408;-70
2022/10/31 10:21:28;;;;;;;9.35;8.32;;;;;;;21.03;58.15;100534.34;10407351;28;20052;-72
2022/10/31 10:26:38;;;;;;;11.48;8.63;;;;;;;21.36;57.28;100531.28;10418680;28;20643;-71
2022/10/31 10:31:42;;;;;;;10.85;9.00;;;;;;;21.57;56.95;100527.00;10415833;28;20051;-72
2022/10/31 10:36:46;;;;;;;12.93;9.15;;;;;;;21.89;55.81;100529.28;10418455;28;20662;-68
2022/10/31 10:52:34;;;;;;;11.32;8.57;;;;;;;22.53;54.00;100505.97;10414106;28;20554;-68
2022/10/31 10:57:53;;;;;;;11.18;9.18;;;;;;;22.86;52.88;100502.63;10416991;28;20071;-71
2022/10/31 11:02:55;;;;;;;11.00;9.02;;;;;;;23.04;52.29;100493.13;10401544;28;20056;-72
2022/10/31 11:07:57;;;;;;;17.23;10.80;;;;;;;23.03;52.68;100486.88;10419210;28;20052;-71
2022/10/31 11:13:06;;;;;;;11.68;9.45;;;;;;;24.26;48.92;100471.63;10416058;28;21124;-72
2022/10/31 11:18:20;;;;;;;14.77;10.73;;;;;;;24.87;46.63;100465.97;10390663;28;20558;-74
2022/10/31 11:23:24;;;;;;;13.75;9.82;;;;;;;25.49;45.91;100462.03;10384421;28;20067;-71
2022/10/31 11:28:29;;;;;;;12.52;9.73;;;;;;;25.79;44.83;100456.00;10369636;28;20061;-71
2022/10/31 11:33:39;;;;;;;15.32;9.63;;;;;;;27.13;43.08;100445.63;10384192;28;21724;-76
2022/10/31 11:38:43;;;;;;;10.90;8.57;;;;;;;27.35;41.40;100436.94;10375862;28;20472;-75
2022/10/31 11:43:57;;;;;;;10.50;8.38;;;;;;;27.82;39.40;100437.16;10374784;28;20053;-71
2022/10/31 11:48:59;;;;;;;11.60;8.85;;;;;;;28.55;38.85;100432.41;10385041;28;20049;-74
2022/10/31 11:54:03;;;;;;;11.10;7.60;;;;;;;29.31;36.75;100419.81;10378510;28;20468;-72
2022/10/31 11:59:30;;;;;;;10.88;7.97;;;;;;;29.05;37.01;100405.53;10372902;28;20065;-74
2022/10/31 12:04:44;;;;;;;8.48;7.32;;;;;;;28.59;38.09;100382.66;10365346;28;20049;-72
2022/10/31 12:09:45;;;;;;;10.43;7.90;;;;;;;28.72;37.31;100385.16;10407188;28;20048;-74
2022/10/31 12:15:12;;;;;;;8.40;6.47;;;;;;;28.28;38.56;100384.66;10392462;28;20064;-73
2022/10/31 12:20:52;;;;;;;12.05;7.93;;;;;;;28.30;38.37;100383.38;10408848;28;20044;-70
2022/10/31 12:26:20;;;;;;;8.85;6.82;;;;;;;28.24;38.09;100376.13;10391690;28;20044;-71
2022/10/31 12:31:53;;;;;;;13.30;7.70;;;;;;;27.99;38.16;100357.19;10412449;28;20047;-74
2022/10/31 12:37:07;;;;;;;10.73;6.57;;;;;;;28.21;38.22;100363.72;10412403;28;20432;-72
2022/10/31 12:42:23;;;;;;;10.10;5.90;;;;;;;28.68;37.50;100354.66;10412979;28;20047;-69
2022/10/31 12:47:37;;;;;;;9.48;5.85;;;;;;;28.61;37.40;100355.88;10416085;28;20040;-72
2022/10/31 12:53:16;;;;;;;10.38;5.53;;;;;;;28.99;36.52;100359.94;10395426;28;20048;-71
2022/10/31 12:58:31;;;;;;;7.63;5.55;;;;;;;28.94;36.95;100348.88;10386139;28;20044;-73
2022/10/31 13:03:57;;;;;;;11.93;6.55;;;;;;;28.17;37.96;100316.00;10378533;28;20799;-71
2022/10/31 13:09:05;;;;;;;11.40;5.93;;;;;;;27.57;38.79;100291.59;10370385;28;20527;-73
2022/10/31 13:14:15;;;;;;;9.60;5.28;;;;;;;27.12;39.96;100290.13;10372744;28;20049;-73
2022/10/31 13:19:30;;;;;;;10.73;6.05;;;;;;;26.44;40.96;100286.56;10377504;28;20041;-73
2022/10/31 13:24:46;;;;;;;10.20;6.00;;;;;;;25.53;43.39;100277.97;10381280;28;20060;-72
2022/10/31 13:30:00;;;;;;;8.48;5.80;;;;;;;24.70;44.51;100272.34;10414844;28;20056;-73
2022/10/31 13:35:02;;;;;;;7.05;6.35;;;;;;;24.23;45.86;100255.34;10413912;28;20509;-70
2022/10/31 13:40:21;;;;;;;7.53;5.28;;;;;;;23.76;47.16;100255.38;10417887;28;20045;-72
2022/10/31 13:45:25;;;;;;;8.68;5.60;;;;;;;23.16;49.10;100246.38;10412198;28;20048;-72
2022/10/31 13:50:30;;;;;;;8.02;5.40;;;;;;;22.74;51.35;100249.16;10419249;28;20056;-72
2022/10/31 13:55:41;;;;;;;11.55;6.05;;;;;;;22.16;52.63;100244.94;10416732;28;20052;-72
2022/10/31 14:00:43;;;;;;;9.15;5.70;;;;;;;21.77;54.96;100243.63;10394925;28;20055;-70
2022/10/31 14:05:53;;;;;;;8.93;5.78;;;;;;;21.52;55.80;100238.63;10397836;28;20048;-73
2022/10/31 14:10:55;;;;;;;8.68;5.78;;;;;;;21.05;56.81;100234.66;10418794;28;20052;-72
2022/10/31 14:16:01;;;;;;;8.38;5.40;;;;;;;20.77;58.75;100229.97;10428216;28;20527;-71
2022/10/31 14:21:15;;;;;;;8.98;5.03;;;;;;;20.53;59.98;100220.31;10411333;28;20057;-72
2022/10/31 14:26:22;;;;;;;8.25;5.05;;;;;;;20.34;61.33;100223.59;10425683;28;20036;-68
2022/10/31 14:31:36;;;;;;;8.40;5.43;;;;;;;20.31;61.73;100212.16;10428083;28;20045;-70
2022/10/31 14:36:49;;;;;;;8.80;5.22;;;;;;;20.24;62.13;100203.13;10410333;28;20051;-69
2022/10/31 14:42:07;;;;;;;7.97;5.47;;;;;;;21.94;57.65;100189.13;10426259;28;20570;-71
2022/10/31 14:47:31;;;;;;;9.38;5.28;;;;;;;23.54;51.33;100186.88;10423629;28;20059;-72
2022/10/31 14:52:36;;;;;;;9.50;5.25;;;;;;;22.61;53.42;100236.41;10429974;28;20403;-69
2022/10/31 14:57:43;;;;;;;7.78;4.75;;;;;;;22.01;55.58;100222.53;10425106;28;20049;-69
2022/10/31 15:02:59;;;;;;;11.00;5.10;;;;;;;21.37;57.36;100208.06;10427918;28;20049;-70
2022/10/31 15:08:01;;;;;;;7.55;5.63;;;;;;;20.90;59.07;100217.66;10413619;28;20045;-70
2022/10/31 15:13:19;;;;;;;7.88;5.70;;;;;;;20.48;60.23;100206.53;10439870;28;20067;-69
2022/10/31 15:18:24;;;;;;;10.82;5.80;;;;;;;20.27;61.87;100216.25;10425324;28;20071;-72
2022/10/31 15:23:28;;;;;;;6.43;5.40;;;;;;;20.05;62.78;100212.63;10478407;28;20041;-72
2022/10/31 15:28:31;;;;;;;9.13;5.88;;;;;;;19.73;65.05;100195.72;10465223;28;20049;-72
2022/10/31 15:33:40;;;;;;;10.38;6.20;;;;;;;19.48;66.07;100186.19;10474057;28;20225;-73
2022/10/31 15:38:49;;;;;;;10.38;5.78;;;;;;;19.34;64.80;100185.97;10420896;28;20135;-71
2022/10/31 15:43:51;;;;;;;8.70;5.83;;;;;;;19.22;67.61;100193.66;10424489;28;20549;-69
2022/10/31 15:48:52;;;;;;;9.15;6.88;;;;;;;19.08;68.75;100178.28;10432225;28;20063;-70
2022/10/31 15:53:55;;;;;;;8.90;6.57;;;;;;;19.12;68.21;100178.75;10423850;28;20068;-70
2022/10/31 15:58:58;;;;;;;8.82;6.40;;;;;;;19.04;69.42;100174.28;10429330;28;20064;-70
2022/10/31 16:04:19;;;;;;;10.93;7.35;;;;;;;18.97;68.16;100182.22;10415260;28;20056;-69
2022/10/31 16:09:22;;;;;;;13.38;7.05;;;;;;;18.89;69.85;100169.66;10434124;28;20045;-69
2022/10/31 16:14:28;;;;;;;9.02;6.70;;;;;;;18.82;70.75;100173.22;10433549;28;20059;-70
2022/10/31 16:19:44;;;;;;;9.45;7.45;;;;;;;18.77;71.10;100172.94;10435247;28;20477;-70
2022/10/31 16:24:50;;;;;;;10.50;8.38;;;;;;;18.63;71.06;100145.72;10431364;28;20667;-71
2022/10/31 16:29:52;;;;;;;13.23;7.95;;;;;;;18.56;71.70;100117.78;10430769;28;20056;-72
2022/10/31 16:35:17;;;;;;;14.55;8.82;;;;;;;18.46;72.41;100084.84;10434849;28;20053;-69
2022/10/31 16:40:18;;;;;;;12.02;8.48;;;;;;;18.32;73.36;100073.81;10433821;28;20091;-72
2022/10/31 16:45:24;;;;;;;11.00;7.85;;;;;;;18.20;74.14;100045.63;10434427;28;20794;-70
2022/10/31 16:50:27;;;;;;;16.00;7.78;;;;;;;18.17;74.45;100037.88;10432630;28;20083;-72
2022/10/31 16:55:28;;;;;;;12.25;8.75;;;;;;;18.04;75.14;100026.88;10435264;28;20048;-70
2022/10/31 17:00:30;;;;;;;12.00;7.28;;;;;;;17.97;76.09;100016.81;10435821;28;20524;-73
2022/10/31 17:05:32;;;;;;;9.48;7.10;;;;;;;17.89;76.34;100018.66;10418849;28;20066;-73
2022/10/31 17:10:34;;;;;;;11.38;8.70;;;;;;;17.70;77.52;100082.72;10432660;28;20056;-72
2022/10/31 17:15:43;;;;;;;12.00;8.30;;;;;;;17.73;78.19;100084.19;10431670;28;20053;-69
2022/10/31 17:20:45;;;;;;;12.00;9.80;;;;;;;17.79;76.75;100087.03;10433262;28;20521;-71
2022/10/31 17:25:46;;;;;;;10.93;8.68;;;;;;;17.76;77.92;100097.28;10415344;28;20531;-71
2022/10/31 17:30:47;;;;;;;10.23;8.77;;;;;;;17.77;78.14;100089.03;10430780;28;21344;-71
2022/10/31 17:35:49;;;;;;;13.15;9.43;;;;;;;17.73;78.57;100092.25;10427033;28;20457;-70
2022/10/31 17:40:50;;;;;;;14.27;10.65;;;;;;;17.54;79.16;100121.25;10404690;28;20053;-70
2022/10/31 17:45:52;;;;;;;12.95;9.60;;;;;;;17.58;79.39;100117.22;10387168;28;20053;-71
2022/10/31 17:50:53;;;;;;;13.75;9.88;;;;;;;17.52;79.73;100096.38;10389802;28;20118;-72
2022/10/31 17:56:02;;;;;;;11.15;9.88;;;;;;;17.46;79.80;100094.41;10378402;28;20056;-71
2022/10/31 18:01:09;;;;;;;12.95;11.27;;;;;;;17.43;79.91;100055.22;10400635;28;20053;-75
2022/10/31 18:06:13;;;;;;;13.75;9.85;;;;;;;17.35;79.82;100090.19;10392510;28;20053;-73
2022/10/31 18:11:20;;;;;;;12.77;10.30;;;;;;;17.25;81.35;100076.94;10390415;28;20084;-74
2022/10/31 18:16:22;;;;;;;13.88;11.25;;;;;;;17.19;81.43;100053.44;10387604;28;20044;-73
2022/10/31 18:21:24;;;;;;;14.15;10.40;;;;;;;17.20;81.61;100063.16;10391102;28;20049;-72
2022/10/31 18:26:26;;;;;;;12.88;10.25;;;;;;;17.10;81.80;100033.78;10394808;28;20056;-74
2022/10/31 18:31:28;;;;;;;13.07;10.18;;;;;;;17.14;81.90;100050.41;10392261;28;20285;-71
2022/10/31 18:36:29;;;;;;;15.52;11.43;;;;;;;17.19;81.56;100055.25;10391812;28;20365;-73
2022/10/31 18:41:31;;;;;;;14.82;11.93;;;;;;;17.18;81.55;100046.34;10395671;28;20049;-73
2022/10/31 18:46:33;;;;;;;13.68;12.27;;;;;;;17.16;81.45;100037.63;10380103;28;20049;-72
2022/10/31 18:51:34;;;;;;;14.43;11.88;;;;;;;17.08;81.33;100034.94;10414916;28;20504;-74
2022/10/31 18:56:35;;;;;;;15.75;12.95;;;;;;;16.90;81.74;100025.25;10429694;28;20169;-72
2022/10/31 19:01:37;;;;;;;14.18;10.88;;;;;;;16.80;81.56;100019.19;10430006;28;20282;-74
2022/10/31 19:06:38;;;;;;;13.98;10.43;;;;;;;16.83;81.67;100034.09;10430891;28;20067;-72
2022/10/31 19:11:39;;;;;;;14.25;10.80;;;;;;;16.79;82.19;100052.44;10427065;28;20049;-72
2022/10/31 19:16:41;;;;;;;13.18;10.63;;;;;;;16.79;82.23;100055.13;10427723;28;20045;-73
2022/10/31 19:21:42;;;;;;;13.23;11.82;;;;;;;16.86;82.50;100069.56;10426761;28;20048;-71
2022/10/31 19:26:43;;;;;;;13.93;12.07;;;;;;;16.74;81.86;100055.63;10412773;28;20521;-70
2022/10/31 19:31:45;;;;;;;12.63;11.43;;;;;;;16.69;82.40;100060.66;10427019;28;20151;-72
2022/10/31 19:36:46;;;;;;;18.50;12.98;;;;;;;16.61;82.84;100068.72;10426854;28;20079;-73
2022/10/31 19:41:47;;;;;;;16.25;12.75;;;;;;;16.67;82.82;100064.53;10424751;28;20065;-73
2022/10/31 19:46:49;;;;;;;15.10;11.98;;;;;;;16.64;82.31;100064.88;10423613;28;20144;-72
2022/10/31 19:51:54;;;;;;;14.23;12.35;;;;;;;16.50;83.23;100074.41;10424100;28;20064;-74
2022/10/31 19:56:55;;;;;;;13.57;12.00;;;;;;;16.52;82.84;100059.81;10424057;28;20056;-71
2022/10/31 20:01:57;;;;;;;14.47;11.63;;;;;;;16.55;82.38;100053.28;10410999;28;20412;-72
2022/10/31 20:06:58;;;;;;;15.77;12.32;;;;;;;16.59;82.29;100049.25;10426151;28;20088;-71
2022/10/31 20:12:00;;;;;;;15.43;12.80;;;;;;;16.61;82.51;100066.88;10426203;28;20049;-75
2022/10/31 20:17:01;;;;;;;16.63;12.80;;;;;;;16.67;82.37;100064.53;10429215;28;20067;-74
2022/10/31 20:22:02;;;;;;;14.35;12.77;;;;;;;16.61;82.01;100066.88;10422275;28;20056;-73
2022/10/31 20:27:04;;;;;;;17.02;14.93;;;;;;;16.53;82.13;100061.50;10428029;28;20056;-73
2022/10/31 20:32:05;;;;;;;16.13;14.00;;;;;;;16.48;82.34;100082.63;10425718;28;20040;-74
2022/10/31 20:37:07;;;;;;;17.90;13.27;;;;;;;16.50;82.07;100071.72;10410767;28;20057;-71
2022/10/31 20:42:08;;;;;;;15.85;14.20;;;;;;;16.44;81.99;100068.72;10427005;28;20426;-71
2022/10/31 20:47:10;;;;;;;16.70;13.05;;;;;;;16.44;82.18;100065.19;10429268;28;20059;-72
2022/10/31 20:52:11;;;;;;;21.27;17.92;;;;;;;16.28;83.02;100065.16;10432983;28;20775;-74
2022/10/31 20:57:12;;;;;;;23.95;21.35;;;;;;;16.20;83.45;100056.09;10397132;28;20060;-73
2022/10/31 21:02:14;;;;;;;17.77;13.95;;;;;;;16.04;84.44;100053.38;10424763;28;20053;-71
2022/10/31 21:07:15;;;;;;;14.35;11.23;;;;;;;15.95;85.10;100060.56;10433110;28;20055;-70
2022/10/31 21:12:17;;;;;;;14.93;11.85;;;;;;;15.89;84.98;100056.66;10433182;28;20048;-74
2022/10/31 21:17:18;;;;;;;15.30;10.57;;;;;;;15.77;85.65;100060.63;10429931;28;20056;-73
2022/10/31 21:22:19;;;;;;;13.70;11.18;;;;;;;15.63;85.95;100066.63;10418919;28;20044;-71
2022/10/31 21:27:21;;;;;;;12.55;10.60;;;;;;;15.66;85.87;100058.25;10428391;28;20064;-71
2022/10/31 21:32:22;;;;;;;13.35;10.15;;;;;;;15.53;86.09;100048.78;10384703;28;20324;-73
2022/10/31 21:37:23;;;;;;;19.17;12.63;;;;;;;15.49;86.36;100060.88;10393146;28;20068;-72
2022/10/31 21:42:24;;;;;;;16.83;12.35;;;;;;;15.36;86.34;100060.47;10390321;28;20056;-73
2022/10/31 21:47:26;;;;;;;15.93;11.80;;;;;;;15.32;85.82;100057.22;10392780;28;20053;-72
2022/10/31 21:52:27;;;;;;;13.38;11.10;;;;;;;15.36;85.65;100063.13;10392653;28;20049;-72
2022/10/31 21:57:29;;;;;;;14.65;12.98;;;;;;;15.28;85.55;100055.03;10391301;28;20048;-74
2022/10/31 22:02:30;;;;;;;13.68;12.02;;;;;;;15.18;86.05;100056.00;10393239;28;20054;-75
2022/10/31 22:07:31;;;;;;;17.27;14.30;;;;;;;15.14;85.81;100045.75;10400787;28;20049;-74
2022/10/31 22:12:32;;;;;;;21.85;19.60;;;;;;;15.08;85.99;100044.53;10393562;28;20056;-73
2022/10/31 22:17:34;;;;;;;21.50;19.33;;;;;;;15.01;85.77;100036.28;10393787;28;20293;-72
2022/10/31 22:22:35;;;;;;;18.50;15.90;;;;;;;14.99;86.15;100032.06;10388426;28;20492;-75
2022/10/31 22:27:37;;;;;;;22.35;20.10;;;;;;;14.97;85.91;100026.88;10393212;28;20349;-71
2022/10/31 22:32:38;;;;;;;30.10;25.63;;;;;;;14.91;86.24;100026.69;10408870;28;20055;-75
2022/10/31 22:37:40;;;;;;;24.33;20.27;;;;;;;14.91;86.12;100018.63;10392354;28;20052;-72
2022/10/31 22:42:41;;;;;;;21.80;19.58;;;;;;;14.90;86.55;100025.00;10391376;28;20052;-73
2022/10/31 22:47:42;;;;;;;24.90;22.38;;;;;;;14.93;86.57;100035.38;10419088;28;20059;-71
2022/10/31 22:52:43;;;;;;;33.67;30.48;;;;;;;14.91;86.90;100032.03;10421738;28;20044;-72
2022/10/31 22:57:45;;;;;;;36.05;32.65;;;;;;;14.94;86.79;100024.50;10415704;28;20056;-72
2022/10/31 23:02:46;;;;;;;38.00;34.25;;;;;;;14.96;86.82;100019.81;10424130;28;20102;-74
2022/10/31 23:07:48;;;;;;;34.70;31.38;;;;;;;14.85;87.38;100010.22;10422829;28;20048;-71
2022/10/31 23:18:10;;;;;;;21.85;19.58;;;;;;;14.95;87.09;100003.91;10423769;28;20631;-71
2022/10/31 23:23:33;;;;;;;17.10;15.55;;;;;;;15.10;86.81;100007.69;10428679;28;20048;-70